Huvudsida
METAR-TAF:

METAR-TAF

Flygplatser :

Szeged flygplats

Szeged, Ungern

latitud: 46-15N, longitud: 020-06E, höjd: 82 m

Aktuellt väderrapport

Denna rapport gjordes för 58 minuter sedan, klockan 13:45 UTC
Vind 3 kt från syd/sydost
Temperatur 32°C
Fuktighet 52%
Tryck 1023 hPa
Sikt 10 km eller mer
Få moln på en höjd av 4600 ft

METAR: LHUD 261345Z 16003KT 9999 FEW046 32/21 Q1023

Tid: 16:43 (14:43 UTC)


TAF: saknas

Aktuella väderrapporter och prognoser från 4000 flygplatser (METAR- och TAF-rapporter).

De tillgängliga stationerna syns som gula och röda prickar på kartan.

För musen över prickarna för att se namnen på stationerna.

Klicka sedan för att få väderrapporter och prognoser.

För att ändra kartan: Klicka på de gröna knapparna med ett svart kors på för att zooma in; den gröna knappen med ett streck på för att zooma ut; eller på de gröna pilarna för angränsande kartor.


METAR-TAF: